Clipper Saga — LAFY6 — position and weather

sailwx.info

Track history (hours):
 
Tides and Currents Weather Stations Pressure Air Temp Water Temp Dewpoint Dewpoint Depression Visibility Wind Speed Wind Dir Waves Ship Positions

Clipper Saga

Last reported at 2015-Aug-05 09:17 UTC. Time now 2015-Aug-05 10:24 UTC.
Position N 52°44' E 002°01'.

Length 89 m; draft 5.9 m.

Type: Ship (hazmat cat C). MMSI: 246657008.

Date/timePositionNaut miles runAvg speedWind from/ knotsBaromVisibWave heightAir tempDewpointWater temp
2015-Aug-05 09:17N 52°44' E 002°01'1013.5
2015-Aug-05 08:33N 52°50' E 001°48'1212.5
2015-Aug-05 07:33N 52°58' E 001°33'1111.4
2015-Aug-05 06:33N 53°08' E 001°22'4310.6
2015-Aug-05 02:32N 53°44' E 000°43'10 9.8
2015-Aug-05 01:33N 53°52' E 000°34'1010.4
2015-Aug-05 00:34N 54°01' E 000°25'1110.8
2015-Aug-04 23:33N 54°10' E 000°15'1111.3
2015-Aug-04 22:33N 54°19' E 000°05'1211.9
2015-Aug-04 21:33N 54°29' W 000°06'1312.8
2015-Aug-04 20:33N 54°40' W 000°18'1313.0
2015-Aug-04 19:33N 54°51' W 000°29'1312.7
2015-Aug-04 18:32N 55°02' W 000°42'6111.8
2015-Aug-04 13:21N 55°50' W 001°48'910.7
2015-Aug-04 12:33N 55°55' W 002°01'1110.8
2015-Aug-04 11:33N 56°00' W 002°18'1111.3
2015-Aug-04 10:33N 56°05' W 002°37'1312.7
2015-Aug-04 09:33N 56°04' W 002°59'1312.8
2015-Aug-04 08:33N 56°01' W 003°21'11 0.7
2015-Aug-03 16:25N 56°02' W 003°41'1 1.2
2015-Aug-03 15:33N 56°02' W 003°40'1010.6
2015-Aug-03 14:34N 56°01' W 003°21'9 8.3
2015-Aug-03 13:32N 56°02' W 003°06'0 0.1
2015-Aug-03 12:32N 56°02' W 003°06'0 0.0
2015-Aug-03 11:08N 56°02' W 003°06'0 0.0
2015-Aug-03 10:23N 56°02' W 003°06'0 0.0
2015-Aug-03 09:26N 56°02' W 003°06'0 0.1
2015-Aug-03 08:23N 56°02' W 003°07'0 0.0
2015-Aug-03 06:29N 56°02' W 003°06'0 0.1
2015-Aug-03 05:29N 56°02' W 003°06'0 0.1
2015-Aug-03 04:32N 56°02' W 003°07'0 0.0
2015-Aug-03 03:32N 56°02' W 003°07'0 0.0
2015-Aug-03 02:32N 56°02' W 003°07'0 0.0
2015-Aug-03 01:29N 56°02' W 003°06'0 0.0
2015-Aug-03 00:32N 56°02' W 003°07'0 0.0
2015-Aug-02 23:20N 56°02' W 003°07'0 0.0
2015-Aug-02 22:23N 56°02' W 003°07'0 0.0
2015-Aug-02 21:32N 56°02' W 003°07'0 0.0
2015-Aug-02 20:20N 56°02' W 003°07'0 0.1
2015-Aug-02 19:26N 56°02' W 003°06'0 0.0
2015-Aug-02 18:26N 56°02' W 003°06'0 0.0
2015-Aug-02 17:26N 56°02' W 003°06'0 0.0
2015-Aug-02 16:29N 56°02' W 003°06'0 0.0
2015-Aug-02 15:29N 56°02' W 003°06'0 0.0
2015-Aug-02 14:29N 56°02' W 003°07'0 0.0
2015-Aug-02 13:32N 56°02' W 003°07'0 0.0
2015-Aug-02 12:32N 56°02' W 003°06'0 0.0
2015-Aug-02 11:32N 56°02' W 003°06'0 0.0
2015-Aug-02 10:32N 56°02' W 003°06'0 0.0
2015-Aug-02 09:32N 56°02' W 003°06'0 0.0
2015-Aug-02 08:23N 56°02' W 003°06'0 0.0
2015-Aug-02 07:32N 56°02' W 003°06'0 0.1
2015-Aug-02 06:23N 56°02' W 003°06'0 0.0
2015-Aug-02 05:26N 56°02' W 003°06'0 0.0
2015-Aug-02 04:26N 56°02' W 003°06'0 0.0
2015-Aug-02 03:23N 56°02' W 003°06'0 0.0
2015-Aug-02 02:29N 56°02' W 003°06'0 0.0
2015-Aug-02 01:29N 56°02' W 003°06'0 0.0
2015-Aug-02 00:29N 56°02' W 003°06'0 0.0
2015-Aug-01 23:32N 56°02' W 003°06'0 0.0
2015-Aug-01 22:32N 56°02' W 003°06'0 0.0
2015-Aug-01 21:32N 56°02' W 003°06'0 0.0
2015-Aug-01 20:32N 56°02' W 003°06'0 0.0
2015-Aug-01 19:32N 56°02' W 003°06'0 0.0
2015-Aug-01 18:20N 56°02' W 003°06'0 0.0
2015-Aug-01 17:32N 56°02' W 003°06'0 0.0
2015-Aug-01 16:23N 56°02' W 003°06'0 0.0
2015-Aug-01 15:26N 56°02' W 003°06'0 0.0
2015-Aug-01 14:26N 56°02' W 003°06'0 0.0
2015-Aug-01 13:23N 56°02' W 003°06'0 0.0
2015-Aug-01 12:29N 56°02' W 003°06'0 0.1
2015-Aug-01 11:29N 56°02' W 003°06'0 0.0
2015-Aug-01 10:29N 56°02' W 003°06'0 0.0
2015-Aug-01 09:32N 56°02' W 003°06'0 0.0
2015-Aug-01 08:32N 56°02' W 003°06'0 0.0
2015-Aug-01 07:29N 56°02' W 003°06'0 0.1
2015-Aug-01 06:32N 56°02' W 003°06'0 0.0
2015-Aug-01 05:32N 56°02' W 003°06'0 0.0
2015-Aug-01 04:32N 56°02' W 003°06'0 0.1
2015-Aug-01 03:33N 56°02' W 003°06'8 8.2
2015-Aug-01 02:33N 56°05' W 002°52'9 9.1
2015-Aug-01 01:33N 56°05' W 002°36'9 9.1
2015-Aug-01 00:33N 56°04' W 002°20'9 9.1
2015-Jul-31 23:33N 56°02' W 002°04'50 9.9
2015-Jul-31 18:29N 55°27' W 001°00'1212.2
2015-Jul-31 17:31N 55°16' W 000°57'1211.8
2015-Jul-31 16:31N 55°04' W 000°55'1111.4
2015-Jul-31 15:33N 54°53' W 000°52'1010.6
2015-Jul-31 14:33N 54°44' W 001°02'8 2.4
2015-Jul-31 11:03N 54°37' W 001°09'0 0.0
2015-Jul-31 10:24N 54°37' W 001°09'0 0.0
2015-Jul-31 09:24N 54°37' W 001°09'0 0.0
2015-Jul-31 06:15N 54°37' W 001°09'1 0.1
2015-Jul-30 19:30N 54°38' W 001°09'5 4.9
2015-Jul-30 18:32N 54°41' W 001°02'0 0.0
2015-Jul-30 17:29N 54°41' W 001°02'0 0.0
2015-Jul-30 16:32N 54°41' W 001°02'0 0.0
2015-Jul-30 15:32N 54°41' W 001°02'0 0.0
2015-Jul-30 14:32N 54°41' W 001°02'0 0.0
2015-Jul-30 13:29N 54°41' W 001°02'0 0.0
2015-Jul-30 12:32N 54°41' W 001°02'5 4.4
2015-Jul-30 11:27N 54°40' W 000°54'1111.7
2015-Jul-30 10:33N 54°38' W 000°36'1211.7
2015-Jul-30 09:33N 54°31' W 000°20'1211.8
2015-Jul-30 08:33N 54°22' W 000°07'1211.6
2015-Jul-30 07:33N 54°13' E 000°05'1111.1
2015-Jul-30 06:33N 54°04' E 000°16'1010.3
2015-Jul-30 05:33N 53°56' E 000°27'10 9.6
2015-Jul-30 04:33N 53°48' E 000°37'38 9.4
2015-Jul-30 00:33N 53°17' E 001°13'1312.8
2015-Jul-29 23:33N 53°06' E 001°24'1312.8
2015-Jul-29 22:33N 52°56' E 001°38'1211.9
2015-Jul-29 21:33N 52°48' E 001°52'10 9.7
2015-Jul-29 20:33N 52°40' E 002°02'9 9.1
2015-Jul-29 19:33N 52°32' E 002°07'69 9.4
2015-Jul-29 12:13N 51°40' E 003°20'711.3
2015-Jul-29 11:33N 51°33' E 003°25'10 9.8
2015-Jul-29 10:33N 51°26' E 003°36'7 7.1
2015-Jul-29 09:33N 51°22' E 003°46'8 7.8
2015-Jul-29 08:33N 51°24' E 003°57'7 6.7
2015-Jul-29 07:33N 51°22' E 004°08'9 8.9
2015-Jul-29 06:34N 51°17' E 004°19'1 0.8
2015-Jul-29 05:33N 51°17' E 004°20'5 0.1
2015-Jul-27 03:12N 51°22' E 004°17'1 1.4
2015-Jul-27 02:34N 51°21' E 004°17'0 0.0
2015-Jul-27 01:33N 51°21' E 004°17'4 3.8
2015-Jul-27 00:33N 51°23' E 004°13'7 7.3
2015-Jul-26 23:33N 51°26' E 004°01'9 9.2
2015-Jul-26 22:33N 51°21' E 003°49'10 9.8
2015-Jul-26 21:33N 51°26' E 003°35'8 8.3
2015-Jul-26 20:33N 51°32' E 003°26'  
Track history (hours):
 
Tides and Currents Weather Stations Pressure Air Temp Water Temp Dewpoint Dewpoint Depression Visibility Wind Speed Wind Dir Waves Ship Positions

Clipper Saga

Last reported at 2015-Aug-05 09:17 UTC. Time now 2015-Aug-05 10:24 UTC.
Position N 52°44' E 002°01'.

Length 89 m; draft 5.9 m.

Type: Ship (hazmat cat C). MMSI: 246657008.

Date/timePositionNaut miles runAvg speedWind from/ knotsBaromVisibWave heightAir tempDewpointWater temp
2015-Aug-05 09:17N 52°44' E 002°01'1013.5
2015-Aug-05 08:33N 52°50' E 001°48'1212.5
2015-Aug-05 07:33N 52°58' E 001°33'1111.4
2015-Aug-05 06:33N 53°08' E 001°22'4310.6
2015-Aug-05 02:32N 53°44' E 000°43'10 9.8
2015-Aug-05 01:33N 53°52' E 000°34'1010.4
2015-Aug-05 00:34N 54°01' E 000°25'1110.8
2015-Aug-04 23:33N 54°10' E 000°15'1111.3
2015-Aug-04 22:33N 54°19' E 000°05'1211.9
2015-Aug-04 21:33N 54°29' W 000°06'1312.8
2015-Aug-04 20:33N 54°40' W 000°18'1313.0
2015-Aug-04 19:33N 54°51' W 000°29'1312.7
2015-Aug-04 18:32N 55°02' W 000°42'6111.8
2015-Aug-04 13:21N 55°50' W 001°48'910.7
2015-Aug-04 12:33N 55°55' W 002°01'1110.8
2015-Aug-04 11:33N 56°00' W 002°18'1111.3
2015-Aug-04 10:33N 56°05' W 002°37'1312.7
2015-Aug-04 09:33N 56°04' W 002°59'1312.8
2015-Aug-04 08:33N 56°01' W 003°21'11 0.7
2015-Aug-03 16:25N 56°02' W 003°41'1 1.2
2015-Aug-03 15:33N 56°02' W 003°40'1010.6
2015-Aug-03 14:34N 56°01' W 003°21'9 8.3
2015-Aug-03 13:32N 56°02' W 003°06'0 0.1
2015-Aug-03 12:32N 56°02' W 003°06'0 0.0
2015-Aug-03 11:08N 56°02' W 003°06'0 0.0
2015-Aug-03 10:23N 56°02' W 003°06'0 0.0
2015-Aug-03 09:26N 56°02' W 003°06'0 0.1
2015-Aug-03 08:23N 56°02' W 003°07'0 0.0
2015-Aug-03 06:29N 56°02' W 003°06'0 0.1
2015-Aug-03 05:29N 56°02' W 003°06'0 0.1
2015-Aug-03 04:32N 56°02' W 003°07'0 0.0
2015-Aug-03 03:32N 56°02' W 003°07'0 0.0
2015-Aug-03 02:32N 56°02' W 003°07'0 0.0
2015-Aug-03 01:29N 56°02' W 003°06'0 0.0
2015-Aug-03 00:32N 56°02' W 003°07'0 0.0
2015-Aug-02 23:20N 56°02' W 003°07'0 0.0
2015-Aug-02 22:23N 56°02' W 003°07'0 0.0
2015-Aug-02 21:32N 56°02' W 003°07'0 0.0
2015-Aug-02 20:20N 56°02' W 003°07'0 0.1
2015-Aug-02 19:26N 56°02' W 003°06'0 0.0
2015-Aug-02 18:26N 56°02' W 003°06'0 0.0
2015-Aug-02 17:26N 56°02' W 003°06'0 0.0
2015-Aug-02 16:29N 56°02' W 003°06'0 0.0
2015-Aug-02 15:29N 56°02' W 003°06'0 0.0
2015-Aug-02 14:29N 56°02' W 003°07'0 0.0
2015-Aug-02 13:32N 56°02' W 003°07'0 0.0
2015-Aug-02 12:32N 56°02' W 003°06'0 0.0
2015-Aug-02 11:32N 56°02' W 003°06'0 0.0
2015-Aug-02 10:32N 56°02' W 003°06'0 0.0
2015-Aug-02 09:32N 56°02' W 003°06'0 0.0
2015-Aug-02 08:23N 56°02' W 003°06'0 0.0
2015-Aug-02 07:32N 56°02' W 003°06'0 0.1
2015-Aug-02 06:23N 56°02' W 003°06'0 0.0
2015-Aug-02 05:26N 56°02' W 003°06'0 0.0
2015-Aug-02 04:26N 56°02' W 003°06'0 0.0
2015-Aug-02 03:23N 56°02' W 003°06'0 0.0
2015-Aug-02 02:29N 56°02' W 003°06'0 0.0
2015-Aug-02 01:29N 56°02' W 003°06'0 0.0
2015-Aug-02 00:29N 56°02' W 003°06'0 0.0
2015-Aug-01 23:32N 56°02' W 003°06'0 0.0
2015-Aug-01 22:32N 56°02' W 003°06'0 0.0
2015-Aug-01 21:32N 56°02' W 003°06'0 0.0
2015-Aug-01 20:32N 56°02' W 003°06'0 0.0
2015-Aug-01 19:32N 56°02' W 003°06'0 0.0
2015-Aug-01 18:20N 56°02' W 003°06'0 0.0
2015-Aug-01 17:32N 56°02' W 003°06'0 0.0
2015-Aug-01 16:23N 56°02' W 003°06'0 0.0
2015-Aug-01 15:26N 56°02' W 003°06'0 0.0
2015-Aug-01 14:26N 56°02' W 003°06'0 0.0
2015-Aug-01 13:23N 56°02' W 003°06'0 0.0
2015-Aug-01 12:29N 56°02' W 003°06'0 0.1
2015-Aug-01 11:29N 56°02' W 003°06'0 0.0
2015-Aug-01 10:29N 56°02' W 003°06'0 0.0
2015-Aug-01 09:32N 56°02' W 003°06'0 0.0
2015-Aug-01 08:32N 56°02' W 003°06'0 0.0
2015-Aug-01 07:29N 56°02' W 003°06'0 0.1
2015-Aug-01 06:32N 56°02' W 003°06'0 0.0
2015-Aug-01 05:32N 56°02' W 003°06'0 0.0
2015-Aug-01 04:32N 56°02' W 003°06'0 0.1
2015-Aug-01 03:33N 56°02' W 003°06'8 8.2
2015-Aug-01 02:33N 56°05' W 002°52'9 9.1
2015-Aug-01 01:33N 56°05' W 002°36'9 9.1
2015-Aug-01 00:33N 56°04' W 002°20'9 9.1
2015-Jul-31 23:33N 56°02' W 002°04'50 9.9
2015-Jul-31 18:29N 55°27' W 001°00'1212.2
2015-Jul-31 17:31N 55°16' W 000°57'1211.8
2015-Jul-31 16:31N 55°04' W 000°55'1111.4
2015-Jul-31 15:33N 54°53' W 000°52'1010.6
2015-Jul-31 14:33N 54°44' W 001°02'8 2.4
2015-Jul-31 11:03N 54°37' W 001°09'0 0.0
2015-Jul-31 10:24N 54°37' W 001°09'0 0.0
2015-Jul-31 09:24N 54°37' W 001°09'0 0.0
2015-Jul-31 06:15N 54°37' W 001°09'1 0.1
2015-Jul-30 19:30N 54°38' W 001°09'5 4.9
2015-Jul-30 18:32N 54°41' W 001°02'0 0.0
2015-Jul-30 17:29N 54°41' W 001°02'0 0.0
2015-Jul-30 16:32N 54°41' W 001°02'0 0.0
2015-Jul-30 15:32N 54°41' W 001°02'0 0.0
2015-Jul-30 14:32N 54°41' W 001°02'0 0.0
2015-Jul-30 13:29N 54°41' W 001°02'0 0.0
2015-Jul-30 12:32N 54°41' W 001°02'5 4.4
2015-Jul-30 11:27N 54°40' W 000°54'1111.7
2015-Jul-30 10:33N 54°38' W 000°36'1211.7
2015-Jul-30 09:33N 54°31' W 000°20'1211.8
2015-Jul-30 08:33N 54°22' W 000°07'1211.6
2015-Jul-30 07:33N 54°13' E 000°05'1111.1
2015-Jul-30 06:33N 54°04' E 000°16'1010.3
2015-Jul-30 05:33N 53°56' E 000°27'10 9.6
2015-Jul-30 04:33N 53°48' E 000°37'38 9.4
2015-Jul-30 00:33N 53°17' E 001°13'1312.8
2015-Jul-29 23:33N 53°06' E 001°24'1312.8
2015-Jul-29 22:33N 52°56' E 001°38'1211.9
2015-Jul-29 21:33N 52°48' E 001°52'10 9.7
2015-Jul-29 20:33N 52°40' E 002°02'9 9.1
2015-Jul-29 19:33N 52°32' E 002°07'69 9.4
2015-Jul-29 12:13N 51°40' E 003°20'711.3
2015-Jul-29 11:33N 51°33' E 003°25'10 9.8
2015-Jul-29 10:33N 51°26' E 003°36'7 7.1
2015-Jul-29 09:33N 51°22' E 003°46'8 7.8
2015-Jul-29 08:33N 51°24' E 003°57'7 6.7
2015-Jul-29 07:33N 51°22' E 004°08'9 8.9
2015-Jul-29 06:34N 51°17' E 004°19'1 0.8
2015-Jul-29 05:33N 51°17' E 004°20'5 0.1
2015-Jul-27 03:12N 51°22' E 004°17'1 1.4
2015-Jul-27 02:34N 51°21' E 004°17'0 0.0
2015-Jul-27 01:33N 51°21' E 004°17'4 3.8
2015-Jul-27 00:33N 51°23' E 004°13'7 7.3
2015-Jul-26 23:33N 51°26' E 004°01'9 9.2
2015-Jul-26 22:33N 51°21' E 003°49'10 9.8
2015-Jul-26 21:33N 51°26' E 003°35'8 8.3
2015-Jul-26 20:33N 51°32' E 003°26'  

Dump ship's entire track history